createdAt,value
2018-09-15T00:00:36.272Z,16.90
2018-09-15T00:03:03.752Z,16.80
2018-09-15T00:05:31.136Z,16.70
2018-09-15T00:07:58.680Z,16.60
2018-09-15T00:10:26.118Z,16.60
2018-09-15T00:12:53.582Z,16.60
2018-09-15T00:15:21.025Z,16.50
2018-09-15T00:17:48.819Z,16.50
2018-09-15T00:20:16.325Z,16.50
2018-09-15T00:22:43.933Z,16.40
2018-09-15T00:25:11.433Z,16.40
2018-09-15T00:27:38.845Z,16.40
2018-09-15T00:30:06.280Z,16.40
2018-09-15T00:32:33.794Z,16.40
2018-09-15T00:35:01.280Z,16.40
2018-09-15T00:37:28.761Z,16.40
2018-09-15T00:39:56.217Z,16.30
2018-09-15T00:42:23.632Z,16.30
2018-09-15T00:44:51.065Z,16.30
2018-09-15T00:47:18.480Z,16.30
2018-09-15T00:49:45.988Z,16.20
2018-09-15T00:52:13.422Z,16.20
2018-09-15T00:54:40.914Z,16.20
2018-09-15T00:57:08.350Z,16.10
2018-09-15T00:59:35.779Z,16.00
2018-09-15T01:02:03.344Z,15.90
2018-09-15T01:04:30.796Z,15.90
2018-09-15T01:06:58.232Z,15.90
2018-09-15T01:09:25.668Z,15.90
2018-09-15T01:11:53.242Z,15.90
2018-09-15T01:14:20.822Z,15.90
2018-09-15T01:16:48.153Z,15.80
2018-09-15T01:19:15.676Z,15.80
2018-09-15T01:21:43.097Z,15.60
2018-09-15T01:24:11.048Z,15.70
2018-09-15T01:26:38.508Z,15.60
2018-09-15T01:29:05.984Z,15.60
2018-09-15T01:31:33.386Z,15.50
2018-09-15T01:34:00.830Z,15.40
2018-09-15T01:36:28.340Z,15.40
2018-09-15T01:38:55.788Z,15.30
2018-09-15T01:41:23.268Z,15.30
2018-09-15T01:43:50.703Z,15.20
2018-09-15T01:46:18.159Z,15.20
2018-09-15T01:48:45.599Z,15.10
2018-09-15T01:51:13.149Z,15.00
2018-09-15T01:53:40.903Z,15.00
2018-09-15T01:56:08.529Z,14.90
2018-09-15T01:58:36.071Z,14.90
2018-09-15T02:01:03.862Z,14.80
2018-09-15T02:03:31.325Z,14.60
2018-09-15T02:05:58.891Z,14.50
2018-09-15T02:08:26.364Z,14.40
2018-09-15T02:10:53.834Z,14.30
2018-09-15T02:13:21.972Z,14.30
2018-09-15T02:15:49.404Z,14.10
2018-09-15T02:18:16.865Z,14.00
2018-09-15T02:20:44.381Z,14.00
2018-09-15T02:23:11.819Z,14.00
2018-09-15T02:25:39.273Z,14.00
2018-09-15T02:28:06.711Z,14.00
2018-09-15T02:30:34.156Z,14.00
2018-09-15T02:33:01.582Z,14.00
2018-09-15T02:35:29.021Z,13.90
2018-09-15T02:37:56.512Z,13.80
2018-09-15T02:40:23.929Z,13.80
2018-09-15T02:42:51.356Z,13.80
2018-09-15T02:45:18.923Z,13.80
2018-09-15T02:47:46.364Z,13.80
2018-09-15T02:50:13.796Z,13.70
2018-09-15T02:52:41.266Z,13.70
2018-09-15T02:55:08.808Z,13.70
2018-09-15T02:57:36.255Z,13.60
2018-09-15T03:00:03.680Z,13.50
2018-09-15T03:02:31.264Z,13.60
2018-09-15T03:04:58.709Z,13.50
2018-09-15T03:07:27.215Z,13.50
2018-09-15T03:09:54.677Z,13.50
2018-09-15T03:12:22.237Z,13.40
2018-09-15T03:14:49.884Z,13.40
2018-09-15T03:17:17.323Z,13.30
2018-09-15T03:19:44.772Z,13.20
2018-09-15T03:22:12.208Z,13.30
2018-09-15T03:24:40.288Z,13.30
2018-09-15T03:27:07.721Z,13.30
2018-09-15T03:29:35.327Z,13.30
2018-09-15T03:32:02.766Z,13.30
2018-09-15T03:34:30.356Z,13.30
2018-09-15T03:36:57.812Z,13.30
2018-09-15T03:39:25.228Z,13.30
2018-09-15T03:41:52.737Z,13.30
2018-09-15T03:44:20.111Z,13.30
2018-09-15T03:46:47.611Z,13.30
2018-09-15T03:49:15.027Z,13.40
2018-09-15T03:51:42.479Z,13.40
2018-09-15T03:54:12.736Z,13.40
2018-09-15T03:56:40.344Z,13.40
2018-09-15T03:59:07.785Z,13.40
2018-09-15T04:01:35.297Z,13.40
2018-09-15T04:04:02.743Z,13.50
2018-09-15T04:06:30.199Z,13.40
2018-09-15T04:08:57.727Z,13.40
2018-09-15T04:11:25.194Z,13.40
2018-09-15T04:13:52.644Z,13.50
2018-09-15T04:16:20.111Z,13.40
2018-09-15T04:18:47.609Z,13.40
2018-09-15T04:21:15.037Z,13.40
2018-09-15T04:23:42.480Z,13.30
2018-09-15T04:26:09.980Z,13.20
2018-09-15T04:28:37.464Z,13.20
2018-09-15T04:31:04.876Z,13.20
2018-09-15T04:33:32.359Z,13.10
2018-09-15T04:35:59.808Z,13.10
2018-09-15T04:38:27.252Z,13.10
2018-09-15T04:40:56.124Z,12.90
2018-09-15T04:43:23.584Z,12.90
2018-09-15T04:45:51.066Z,12.80
2018-09-15T04:48:21.897Z,12.80
2018-09-15T04:50:49.480Z,12.70
2018-09-15T04:53:17.037Z,12.60
2018-09-15T04:55:45.629Z,12.60
2018-09-15T04:58:13.280Z,12.70
2018-09-15T05:00:40.717Z,12.60
2018-09-15T05:03:08.181Z,12.60
2018-09-15T05:05:35.620Z,12.60
2018-09-15T05:08:03.140Z,12.60
2018-09-15T05:10:30.568Z,12.60
2018-09-15T05:12:58.232Z,12.50
2018-09-15T05:15:25.637Z,12.50
2018-09-15T05:17:54.305Z,12.50
2018-09-15T05:20:21.742Z,12.50
2018-09-15T05:22:49.175Z,12.40
2018-09-15T05:25:16.591Z,12.40
2018-09-15T05:27:44.088Z,12.30
2018-09-15T05:30:11.575Z,12.30
2018-09-15T05:32:39.024Z,12.30
2018-09-15T05:35:06.458Z,12.30
2018-09-15T05:37:34.038Z,12.40
2018-09-15T05:40:01.618Z,12.30
2018-09-15T05:42:28.992Z,12.40
2018-09-15T05:44:56.461Z,12.40
2018-09-15T05:47:24.101Z,12.30
2018-09-15T05:49:51.735Z,12.30
2018-09-15T05:52:19.266Z,12.40
2018-09-15T05:54:46.675Z,12.30
2018-09-15T05:57:14.242Z,12.30
2018-09-15T05:59:41.662Z,12.40
2018-09-15T06:02:09.261Z,12.50
2018-09-15T06:04:36.909Z,12.60
2018-09-15T06:07:05.412Z,12.70
2018-09-15T06:09:32.840Z,12.80
2018-09-15T06:12:00.304Z,12.80
2018-09-15T06:14:27.874Z,12.90
2018-09-15T06:16:55.388Z,12.90
2018-09-15T06:19:22.825Z,12.90
2018-09-15T06:21:50.465Z,13.00
2018-09-15T06:24:17.896Z,13.10
2018-09-15T06:26:48.612Z,13.20
2018-09-15T06:29:16.168Z,13.30
2018-09-15T06:31:43.759Z,13.40
2018-09-15T06:34:11.249Z,13.50
2018-09-15T06:36:38.637Z,13.60
2018-09-15T06:39:07.231Z,13.70
2018-09-15T06:41:34.764Z,13.90
2018-09-15T06:44:02.252Z,14.00
2018-09-15T06:46:29.741Z,14.20
2018-09-15T06:48:57.168Z,14.20
2018-09-15T06:51:24.706Z,14.20
2018-09-15T06:53:52.146Z,14.40
2018-09-15T06:56:19.545Z,14.50
2018-09-15T06:58:47.012Z,14.60
2018-09-15T07:01:14.548Z,14.70
2018-09-15T07:03:42.146Z,14.80
2018-09-15T07:06:09.722Z,14.90
2018-09-15T07:08:37.410Z,15.00
2018-09-15T07:11:06.376Z,15.20
2018-09-15T07:13:33.824Z,15.30
2018-09-15T07:16:01.244Z,15.50
2018-09-15T07:18:28.828Z,15.70
2018-09-15T07:20:56.451Z,15.90
2018-09-15T07:23:23.883Z,16.00
2018-09-15T07:25:52.569Z,16.30
2018-09-15T07:28:20.101Z,17.20
2018-09-15T07:30:47.607Z,17.90
2018-09-15T07:33:15.047Z,18.80
2018-09-15T07:35:42.563Z,19.50
2018-09-15T07:38:10.108Z,20.10
2018-09-15T07:40:37.648Z,20.70
2018-09-15T07:43:05.392Z,21.40
2018-09-15T07:45:33.960Z,21.80
2018-09-15T07:48:01.400Z,22.20
2018-09-15T07:50:28.885Z,22.40
2018-09-15T07:52:56.300Z,22.70
2018-09-15T07:55:23.728Z,22.80
2018-09-15T07:57:51.352Z,22.90
2018-09-15T08:00:18.652Z,23.10
2018-09-15T08:02:46.102Z,23.40
2018-09-15T08:05:13.545Z,23.50
2018-09-15T08:07:41.001Z,23.40
2018-09-15T08:10:08.445Z,23.20
2018-09-15T08:12:35.943Z,22.90
2018-09-15T08:15:03.437Z,22.80
2018-09-15T08:17:31.996Z,22.70
2018-09-15T08:19:59.425Z,22.60
2018-09-15T08:22:26.844Z,23.00
2018-09-15T08:24:54.330Z,23.30
2018-09-15T08:27:21.833Z,23.20
2018-09-15T08:29:49.294Z,23.60
2018-09-15T08:32:16.807Z,23.50
2018-09-15T08:34:44.296Z,23.60
2018-09-15T08:37:11.720Z,23.90
2018-09-15T08:39:39.149Z,23.80
2018-09-15T08:42:06.633Z,24.00
2018-09-15T08:44:34.063Z,23.80
2018-09-15T08:47:01.521Z,23.90
2018-09-15T08:49:28.973Z,24.00
2018-09-15T08:51:56.532Z,24.30
2018-09-15T08:54:23.971Z,24.80
2018-09-15T08:56:51.390Z,24.80
2018-09-15T08:59:18.841Z,24.90
2018-09-15T09:01:46.376Z,25.10
2018-09-15T09:04:13.809Z,25.40
2018-09-15T09:06:41.383Z,25.50
2018-09-15T09:09:09.897Z,25.50
2018-09-15T09:11:37.339Z,25.70
2018-09-15T09:14:04.842Z,25.70
2018-09-15T09:16:32.332Z,25.80
2018-09-15T09:18:59.756Z,26.20
2018-09-15T09:21:29.388Z,26.10
2018-09-15T09:23:57.051Z,26.30
2018-09-15T09:26:24.621Z,26.40
2018-09-15T09:28:52.039Z,25.80
2018-09-15T09:31:20.636Z,26.00
2018-09-15T09:33:48.204Z,25.70
2018-09-15T09:36:16.796Z,25.80
2018-09-15T09:38:51.094Z,25.90
2018-09-15T09:41:18.672Z,26.00
2018-09-15T09:43:50.333Z,26.00
2018-09-15T09:46:18.420Z,26.00
2018-09-15T09:48:45.895Z,25.90
2018-09-15T09:51:13.356Z,25.50
2018-09-15T09:53:43.036Z,25.60
2018-09-15T09:56:10.525Z,25.90
2018-09-15T09:58:39.149Z,26.10
2018-09-15T10:01:12.267Z,26.10
2018-09-15T10:03:39.696Z,26.20
2018-09-15T10:06:07.313Z,26.40
2018-09-15T10:08:34.802Z,26.60
2018-09-15T10:11:02.380Z,26.50
2018-09-15T10:13:34.112Z,26.60
2018-09-15T10:16:02.855Z,27.00
2018-09-15T10:18:32.295Z,26.90
2018-09-15T10:20:59.847Z,27.10
2018-09-15T10:23:30.665Z,27.30
2018-09-15T10:25:58.232Z,27.50
2018-09-15T10:28:25.663Z,27.30
2018-09-15T10:30:53.187Z,27.10
2018-09-15T10:33:20.644Z,26.90
2018-09-15T10:35:48.337Z,26.70
2018-09-15T10:38:15.845Z,26.80
2018-09-15T10:40:43.290Z,26.50
2018-09-15T10:43:10.745Z,26.40
2018-09-15T10:45:38.179Z,26.40
2018-09-15T10:48:09.043Z,26.20
2018-09-15T10:50:36.618Z,26.40
2018-09-15T10:53:04.078Z,26.60
2018-09-15T10:55:31.536Z,26.50
2018-09-15T10:58:01.065Z,26.40
2018-09-15T11:00:28.920Z,26.20
2018-09-15T11:02:56.297Z,26.00
2018-09-15T11:05:23.733Z,25.80
2018-09-15T11:07:51.256Z,25.70
2018-09-15T11:10:18.748Z,25.60
2018-09-15T11:12:46.273Z,25.40
2018-09-15T11:15:13.745Z,25.30
2018-09-15T11:17:41.236Z,25.60
2018-09-15T11:20:08.772Z,26.00
2018-09-15T11:22:36.364Z,25.90
2018-09-15T11:25:03.904Z,26.00
2018-09-15T11:27:31.338Z,26.20
2018-09-15T11:29:58.803Z,26.40
2018-09-15T11:32:26.266Z,26.20
2018-09-15T11:34:53.908Z,26.20
2018-09-15T11:37:21.360Z,26.20
2018-09-15T11:39:48.859Z,26.00
2018-09-15T11:42:16.292Z,25.70
2018-09-15T11:44:43.771Z,25.60
2018-09-15T11:47:11.220Z,25.50
2018-09-15T11:49:38.720Z,25.80
2018-09-15T11:52:06.233Z,25.70
2018-09-15T11:54:33.687Z,25.80
2018-09-15T11:57:11.007Z,25.60
2018-09-15T11:59:38.447Z,25.20
2018-09-15T12:02:06.046Z,25.40
2018-09-15T12:04:33.499Z,25.40
2018-09-15T12:07:01.091Z,25.40
2018-09-15T12:09:28.519Z,25.50
2018-09-15T12:12:09.315Z,25.60
2018-09-15T12:14:36.739Z,25.60
2018-09-15T12:17:04.177Z,25.40
2018-09-15T12:19:31.620Z,25.20
2018-09-15T12:21:59.088Z,25.20
2018-09-15T12:24:26.724Z,25.30
2018-09-15T12:26:54.208Z,25.20
2018-09-15T12:29:21.704Z,25.30
2018-09-15T12:31:49.133Z,25.30
2018-09-15T12:34:16.688Z,25.20
2018-09-15T12:36:44.127Z,25.10
2018-09-15T12:39:11.608Z,25.10
2018-09-15T12:41:39.164Z,25.00
2018-09-15T12:44:06.647Z,24.90
2018-09-15T12:46:39.792Z,24.90
2018-09-15T12:49:07.287Z,24.80
2018-09-15T12:51:34.808Z,24.80
2018-09-15T12:54:02.338Z,24.60
2018-09-15T12:56:29.817Z,24.50
2018-09-15T12:58:57.344Z,24.30
2018-09-15T13:01:25.012Z,24.30
2018-09-15T13:03:52.592Z,24.20
2018-09-15T13:06:25.917Z,24.20
2018-09-15T13:08:53.396Z,24.20
2018-09-15T13:11:20.825Z,24.00
2018-09-15T13:13:48.363Z,24.10
2018-09-15T13:16:15.843Z,24.20
2018-09-15T13:18:43.344Z,23.90
2018-09-15T13:21:10.804Z,23.90
2018-09-15T13:23:38.453Z,23.90
2018-09-15T13:26:05.932Z,23.90
2018-09-15T13:28:33.453Z,24.00
2018-09-15T13:31:00.978Z,24.10
2018-09-15T13:33:28.481Z,24.10
2018-09-15T13:35:55.985Z,24.00
2018-09-15T13:38:23.435Z,23.90
2018-09-15T13:40:50.897Z,23.90
2018-09-15T13:43:18.371Z,23.80
2018-09-15T13:45:45.832Z,23.60
2018-09-15T13:48:13.399Z,23.50
2018-09-15T13:50:40.842Z,23.60
2018-09-15T13:53:08.271Z,23.50
2018-09-15T13:55:35.820Z,23.60
2018-09-15T13:58:03.257Z,23.70
2018-09-15T14:00:31.744Z,23.60
2018-09-15T14:02:59.173Z,23.40
2018-09-15T14:05:26.841Z,23.10
2018-09-15T14:07:54.308Z,23.10
2018-09-15T14:10:21.767Z,23.20
2018-09-15T14:12:49.255Z,23.30
2018-09-15T14:15:16.756Z,23.40
2018-09-15T14:17:44.232Z,23.30
2018-09-15T14:20:11.672Z,23.30
2018-09-15T14:22:39.284Z,23.30
2018-09-15T14:25:06.736Z,23.30
2018-09-15T14:27:34.216Z,23.20
2018-09-15T14:30:01.639Z,23.20
2018-09-15T14:32:29.136Z,23.00
2018-09-15T14:34:56.768Z,23.10
2018-09-15T14:37:24.239Z,23.20
2018-09-15T14:39:51.821Z,23.10
2018-09-15T14:42:25.231Z,23.00
2018-09-15T14:44:53.834Z,23.00
2018-09-15T14:47:21.383Z,22.90
2018-09-15T14:49:48.856Z,22.90
2018-09-15T14:52:16.482Z,23.00
2018-09-15T14:54:43.944Z,22.90
2018-09-15T14:57:12.476Z,23.00
2018-09-15T14:59:40.095Z,23.00
2018-09-15T15:02:07.572Z,23.00
2018-09-15T15:04:35.075Z,23.00
2018-09-15T15:07:02.560Z,23.00
2018-09-15T15:09:30.115Z,23.00
2018-09-15T15:11:57.870Z,22.90
2018-09-15T15:14:25.331Z,22.90
2018-09-15T15:16:53.808Z,22.80
2018-09-15T15:19:21.316Z,22.70
2018-09-15T15:21:50.926Z,22.70
2018-09-15T15:24:18.421Z,22.60
2018-09-15T15:26:46.001Z,22.50
2018-09-15T15:29:13.500Z,22.60
2018-09-15T15:31:43.099Z,22.30
2018-09-15T15:34:10.633Z,22.10
2018-09-15T15:36:38.139Z,22.20
2018-09-15T15:39:06.741Z,22.30
2018-09-15T15:41:34.289Z,22.30
2018-09-15T15:44:01.760Z,22.30
2018-09-15T15:46:29.343Z,22.30
2018-09-15T15:48:56.792Z,22.20
2018-09-15T15:51:24.325Z,22.10
2018-09-15T15:53:51.764Z,22.20
2018-09-15T15:56:19.209Z,22.20
2018-09-15T15:58:46.866Z,22.20
2018-09-15T16:01:17.943Z,22.10
2018-09-15T16:03:46.471Z,22.00
2018-09-15T16:06:13.911Z,22.10
2018-09-15T16:08:41.524Z,22.00
2018-09-15T16:11:08.971Z,21.90
2018-09-15T16:13:36.494Z,21.80
2018-09-15T16:16:03.908Z,21.90
2018-09-15T16:18:31.384Z,21.80
2018-09-15T16:20:58.980Z,21.90
2018-09-15T16:23:26.424Z,21.80
2018-09-15T16:25:53.974Z,21.70
2018-09-15T16:28:21.561Z,21.80
2018-09-15T16:30:49.329Z,21.90
2018-09-15T16:33:16.900Z,21.80
2018-09-15T16:35:44.368Z,21.90
2018-09-15T16:38:11.875Z,21.90
2018-09-15T16:40:39.374Z,21.90
2018-09-15T16:43:06.800Z,22.00
2018-09-15T16:45:34.870Z,22.00
2018-09-15T16:48:02.660Z,21.90
2018-09-15T16:50:30.157Z,22.00
2018-09-15T16:52:57.760Z,22.10
2018-09-15T16:55:25.301Z,21.90
2018-09-15T16:57:52.848Z,22.00
2018-09-15T17:00:20.292Z,22.00
2018-09-15T17:02:53.624Z,21.90
2018-09-15T17:05:21.271Z,21.70
2018-09-15T17:07:49.589Z,21.60
2018-09-15T17:10:17.102Z,21.60
2018-09-15T17:12:44.553Z,21.70
2018-09-15T17:15:12.066Z,21.70
2018-09-15T17:17:39.549Z,21.70
2018-09-15T17:20:07.071Z,21.70
2018-09-15T17:22:34.740Z,21.70
2018-09-15T17:25:02.096Z,21.70
2018-09-15T17:27:29.518Z,21.60
2018-09-15T17:29:57.084Z,21.70
2018-09-15T17:32:24.512Z,21.60
2018-09-15T17:34:52.092Z,21.50
2018-09-15T17:37:19.563Z,21.40
2018-09-15T17:39:47.167Z,21.40
2018-09-15T17:42:14.560Z,21.30
2018-09-15T17:44:42.029Z,21.10
2018-09-15T17:47:09.466Z,21.00
2018-09-15T17:49:36.956Z,20.90
2018-09-15T17:52:04.400Z,20.70
2018-09-15T17:54:31.857Z,20.60
2018-09-15T17:56:59.473Z,20.40
2018-09-15T17:59:26.893Z,20.20
2018-09-15T18:01:54.343Z,20.20
2018-09-15T18:04:21.817Z,20.00
2018-09-15T18:06:49.237Z,19.90
2018-09-15T18:09:16.681Z,19.70
2018-09-15T18:11:44.157Z,19.50
2018-09-15T18:14:11.791Z,19.30
2018-09-15T18:16:39.268Z,19.20
2018-09-15T18:19:06.811Z,19.10
2018-09-15T18:21:34.335Z,19.10
2018-09-15T18:24:01.778Z,19.10
2018-09-15T18:26:29.271Z,18.80
2018-09-15T18:28:56.815Z,18.80
2018-09-15T18:31:24.328Z,18.70
2018-09-15T18:33:51.902Z,18.60
2018-09-15T18:36:19.330Z,18.60
2018-09-15T18:38:46.863Z,18.50
2018-09-15T18:41:14.339Z,18.40
2018-09-15T18:43:41.843Z,18.20
2018-09-15T18:46:09.437Z,18.10
2018-09-15T18:48:36.939Z,18.00
2018-09-15T18:51:04.372Z,17.90
2018-09-15T18:53:31.858Z,17.80
2018-09-15T18:55:59.353Z,17.70
2018-09-15T18:58:26.840Z,17.60
2018-09-15T19:00:54.276Z,17.40
2018-09-15T19:03:21.683Z,17.50
2018-09-15T19:05:49.169Z,17.20
2018-09-15T19:08:16.804Z,17.10
2018-09-15T19:10:44.234Z,16.90
2018-09-15T19:13:12.376Z,16.90
2018-09-15T19:15:39.790Z,16.70
2018-09-15T19:18:07.218Z,16.80
2018-09-15T19:20:34.644Z,16.90
2018-09-15T19:23:02.177Z,16.90
2018-09-15T19:25:29.780Z,16.90
2018-09-15T19:27:57.322Z,16.90
2018-09-15T19:30:24.720Z,16.90
2018-09-15T19:32:52.235Z,16.70
2018-09-15T19:35:19.643Z,16.70
2018-09-15T19:37:47.121Z,16.60
2018-09-15T19:40:14.643Z,16.60
2018-09-15T19:42:42.122Z,16.60
2018-09-15T19:45:09.561Z,16.70
2018-09-15T19:47:37.075Z,16.70
2018-09-15T19:50:04.525Z,16.70
2018-09-15T19:52:31.949Z,16.70
2018-09-15T19:54:59.369Z,16.60
2018-09-15T19:57:26.907Z,16.60
2018-09-15T19:59:54.414Z,16.60
2018-09-15T20:02:21.955Z,16.50
2018-09-15T20:04:49.547Z,16.50
2018-09-15T20:07:16.943Z,16.50
2018-09-15T20:09:44.395Z,16.40
2018-09-15T20:12:11.840Z,16.40
2018-09-15T20:14:39.274Z,16.30
2018-09-15T20:17:06.708Z,16.30
2018-09-15T20:19:33.660Z,16.30
2018-09-15T20:22:01.149Z,16.30
2018-09-15T20:24:28.566Z,16.20
2018-09-15T20:26:56.088Z,16.20
2018-09-15T20:29:23.547Z,16.10
2018-09-15T20:31:50.963Z,16.10
2018-09-15T20:34:18.476Z,16.00
2018-09-15T20:36:45.979Z,15.90
2018-09-15T20:39:13.523Z,15.80
2018-09-15T20:41:41.028Z,15.70
2018-09-15T20:44:08.740Z,15.70
2018-09-15T20:46:36.236Z,15.70
2018-09-15T20:49:03.781Z,15.60
2018-09-15T20:51:31.179Z,15.40
2018-09-15T20:53:58.651Z,15.30
2018-09-15T20:56:26.146Z,15.40
2018-09-15T20:58:53.563Z,15.40
2018-09-15T21:01:20.981Z,15.40
2018-09-15T21:03:48.430Z,15.30
2018-09-15T21:06:15.860Z,15.30
2018-09-15T21:08:43.380Z,15.20
2018-09-15T21:11:10.935Z,15.20
2018-09-15T21:13:39.132Z,15.10
2018-09-15T21:16:06.680Z,15.00
2018-09-15T21:18:34.099Z,14.90
2018-09-15T21:21:01.583Z,14.90
2018-09-15T21:23:29.027Z,14.90
2018-09-15T21:25:56.546Z,14.90
2018-09-15T21:28:24.096Z,14.90
2018-09-15T21:30:51.785Z,14.80
2018-09-15T21:33:19.247Z,14.70
2018-09-15T21:35:46.639Z,14.80
2018-09-15T21:38:14.111Z,14.70
2018-09-15T21:40:41.546Z,14.80
2018-09-15T21:43:09.017Z,14.80
2018-09-15T21:45:36.524Z,14.80
2018-09-15T21:48:04.067Z,14.80
2018-09-15T21:50:31.492Z,14.80
2018-09-15T21:52:58.929Z,14.70
2018-09-15T21:55:26.387Z,14.70
2018-09-15T21:57:53.808Z,14.60
2018-09-15T22:00:21.268Z,14.50
2018-09-15T22:02:48.699Z,14.50
2018-09-15T22:05:16.155Z,14.50
2018-09-15T22:07:43.655Z,14.50
2018-09-15T22:10:11.123Z,14.40
2018-09-15T22:12:38.499Z,14.30
2018-09-15T22:15:10.239Z,14.30
2018-09-15T22:17:37.697Z,14.30
2018-09-15T22:20:05.263Z,14.30
2018-09-15T22:22:32.690Z,14.30
2018-09-15T22:25:00.110Z,14.20
2018-09-15T22:27:27.524Z,14.10
2018-09-15T22:29:54.953Z,14.00
2018-09-15T22:32:22.430Z,14.10
2018-09-15T22:34:49.898Z,14.10
2018-09-15T22:37:17.412Z,13.90
2018-09-15T22:39:44.915Z,13.90
2018-09-15T22:42:12.331Z,13.80
2018-09-15T22:44:39.736Z,13.70
2018-09-15T22:47:07.216Z,13.50
2018-09-15T22:49:34.736Z,13.30
2018-09-15T22:52:02.180Z,13.20
2018-09-15T22:54:29.643Z,13.00
2018-09-15T22:56:57.076Z,13.00
2018-09-15T22:59:24.487Z,13.00
2018-09-15T23:01:51.937Z,13.00
2018-09-15T23:04:19.392Z,12.90
2018-09-15T23:06:46.941Z,13.00
2018-09-15T23:09:14.347Z,13.00
2018-09-15T23:11:41.859Z,13.00
2018-09-15T23:14:09.288Z,12.90
2018-09-15T23:16:36.812Z,12.80
2018-09-15T23:19:04.286Z,12.80
2018-09-15T23:21:31.967Z,12.70
2018-09-15T23:23:59.623Z,12.70
2018-09-15T23:26:27.042Z,12.70
2018-09-15T23:28:54.568Z,12.60
2018-09-15T23:31:22.063Z,12.50
2018-09-15T23:33:49.500Z,12.40
2018-09-15T23:36:16.915Z,12.30
2018-09-15T23:38:44.367Z,12.30
2018-09-15T23:41:11.851Z,12.30
2018-09-15T23:43:39.583Z,12.20
2018-09-15T23:46:07.296Z,12.30
2018-09-15T23:48:34.734Z,12.30
2018-09-15T23:51:02.160Z,12.40
2018-09-15T23:53:29.585Z,12.40
2018-09-15T23:55:57.104Z,12.40
2018-09-15T23:58:24.685Z,12.40
